Terminal Aerodrome Forecast
Issued by NWS

Home | Current Version | Previous Version | Text Only | Print | Product List | Glossary On
Versions: 1 2 3 4 5 6 7 8 9 10 11 12 13
000
FTUS42 TJSJ 011740
TAFISX
TAF
TISX 011740Z 0118/0218 11015KT P6SM VCSH FEW030 BKN080
     FM012300 07009KT P6SM FEW025
     FM021300 10015KT P6SM VCSH FEW030 SCT080
      AMD NOT SKED=

USA.gov is the U.S. government's official web portal to all federal, state and local government web resources and services.